createdAt,value
2023-04-29T00:00:07.736Z,39.72
2023-04-29T00:02:34.801Z,43.38
2023-04-29T00:05:05.089Z,40.72
2023-04-29T00:07:32.473Z,45.17
2023-04-29T00:09:59.317Z,40.58
2023-04-29T00:12:26.258Z,42.90
2023-04-29T00:14:52.949Z,40.85
2023-04-29T00:17:19.517Z,46.90
2023-04-29T00:19:46.230Z,42.17
2023-04-29T00:22:12.828Z,42.58
2023-04-29T00:24:39.396Z,44.70
2023-04-29T00:27:06.551Z,38.33
2023-04-29T00:29:33.188Z,45.85
2023-04-29T00:31:59.918Z,46.95
2023-04-29T00:34:26.628Z,40.95
2023-04-29T00:36:53.222Z,46.10
2023-04-29T00:39:19.826Z,48.65
2023-04-29T00:41:46.486Z,47.65
2023-04-29T00:44:13.073Z,45.60
2023-04-29T00:46:39.908Z,50.50
2023-04-29T00:49:08.180Z,52.67
2023-04-29T00:51:36.342Z,52.15
2023-04-29T00:54:04.383Z,47.85
2023-04-29T00:56:32.200Z,51.42
2023-04-29T00:58:59.527Z,38.63
2023-04-29T01:01:26.386Z,51.10
2023-04-29T01:03:53.602Z,52.63
2023-04-29T01:06:34.769Z,54.83
2023-04-29T01:09:41.056Z,48.80
2023-04-29T01:12:33.460Z,55.10
2023-04-29T01:15:05.324Z,52.53
2023-04-29T01:17:50.747Z,52.83
2023-04-29T01:20:18.072Z,53.35
2023-04-29T01:22:45.126Z,50.65
2023-04-29T01:25:12.926Z,54.78
2023-04-29T01:28:05.176Z,57.58
2023-04-29T01:30:47.620Z,53.58
2023-04-29T01:33:37.940Z,58.05
2023-04-29T01:36:20.266Z,54.33
2023-04-29T01:39:14.603Z,53.13
2023-04-29T01:41:52.053Z,40.83
2023-04-29T01:44:24.362Z,53.45
2023-04-29T01:46:53.939Z,49.13
2023-04-29T01:49:27.506Z,48.00
2023-04-29T01:51:54.531Z,56.00
2023-04-29T01:54:22.371Z,54.85
2023-04-29T01:56:49.427Z,45.70
2023-04-29T01:59:16.294Z,52.13
2023-04-29T02:01:42.862Z,50.72
2023-04-29T02:04:09.538Z,48.35
2023-04-29T02:06:36.236Z,52.80
2023-04-29T02:09:03.054Z,47.83
2023-04-29T02:11:29.648Z,48.67
2023-04-29T02:13:56.587Z,39.95
2023-04-29T02:16:23.250Z,41.50
2023-04-29T02:18:49.844Z,38.53
2023-04-29T02:21:16.526Z,43.28
2023-04-29T02:23:43.185Z,36.42
2023-04-29T02:26:10.540Z,38.13
2023-04-29T02:28:37.298Z,35.00
2023-04-29T02:31:03.918Z,39.60
2023-04-29T02:33:30.707Z,36.92
2023-04-29T02:35:57.296Z,34.35
2023-04-29T02:38:23.936Z,35.75
2023-04-29T02:40:50.596Z,35.88
2023-04-29T02:43:17.357Z,35.33
2023-04-29T02:45:44.509Z,32.40
2023-04-29T02:48:11.199Z,39.33
2023-04-29T02:50:37.815Z,37.58
2023-04-29T02:53:04.496Z,36.05
2023-04-29T02:55:31.084Z,40.28
2023-04-29T02:57:57.652Z,36.47
2023-04-29T03:00:24.303Z,38.38
2023-04-29T03:02:51.005Z,37.72
2023-04-29T03:05:17.707Z,36.85
2023-04-29T03:07:44.337Z,35.20
2023-04-29T03:10:12.035Z,36.97
2023-04-29T03:12:39.351Z,34.65
2023-04-29T03:15:10.518Z,38.83
2023-04-29T03:17:37.367Z,35.53
2023-04-29T03:20:04.671Z,37.92
2023-04-29T03:22:31.278Z,33.05
2023-04-29T03:24:57.851Z,36.38
2023-04-29T03:27:24.783Z,35.65
2023-04-29T03:29:51.560Z,39.28
2023-04-29T03:32:18.482Z,35.03
2023-04-29T03:34:45.174Z,38.67
2023-04-29T03:37:11.832Z,36.47
2023-04-29T03:39:38.555Z,36.55
2023-04-29T03:42:05.146Z,35.80
2023-04-29T03:44:31.724Z,34.15
2023-04-29T03:46:58.377Z,31.77
2023-04-29T03:49:25.472Z,29.92
2023-04-29T03:51:52.614Z,27.75
2023-04-29T03:54:19.359Z,28.58
2023-04-29T03:56:45.992Z,28.23
2023-04-29T03:59:12.592Z,24.35
2023-04-29T04:01:39.191Z,24.30
2023-04-29T04:04:05.875Z,23.75
2023-04-29T04:06:32.563Z,23.73
2023-04-29T04:08:59.191Z,23.88
2023-04-29T04:11:25.803Z,24.50
2023-04-29T04:13:52.462Z,23.23
2023-04-29T04:16:19.071Z,20.48
2023-04-29T04:18:45.921Z,23.88
2023-04-29T04:21:12.818Z,20.95
2023-04-29T04:23:43.916Z,23.33
2023-04-29T04:26:10.608Z,24.63
2023-04-29T04:28:37.194Z,26.60
2023-04-29T04:31:05.428Z,22.52
2023-04-29T04:33:32.192Z,24.90
2023-04-29T04:35:58.785Z,26.80
2023-04-29T04:38:26.297Z,22.85
2023-04-29T04:40:52.926Z,22.75
2023-04-29T04:43:19.644Z,25.42
2023-04-29T04:45:46.430Z,24.05
2023-04-29T04:48:13.136Z,23.75
2023-04-29T04:50:40.022Z,23.73
2023-04-29T04:53:06.669Z,25.45
2023-04-29T04:55:33.582Z,22.98
2023-04-29T04:58:00.298Z,24.48
2023-04-29T05:00:26.995Z,24.75
2023-04-29T05:02:53.720Z,22.27
2023-04-29T05:05:20.742Z,20.73
2023-04-29T05:07:47.393Z,26.08
2023-04-29T05:10:14.057Z,22.42
2023-04-29T05:12:40.728Z,26.35
2023-04-29T05:15:08.033Z,24.48
2023-04-29T05:17:36.253Z,24.13
2023-04-29T05:20:03.281Z,23.55
2023-04-29T05:22:29.876Z,26.85
2023-04-29T05:25:02.550Z,22.05
2023-04-29T05:27:29.758Z,26.75
2023-04-29T05:29:56.879Z,23.17
2023-04-29T05:32:23.746Z,23.88
2023-04-29T05:34:50.606Z,22.75
2023-04-29T05:37:17.375Z,22.55
2023-04-29T05:39:43.951Z,21.60
2023-04-29T05:42:10.528Z,20.92
2023-04-29T05:44:37.162Z,23.55
2023-04-29T05:47:03.784Z,21.77
2023-04-29T05:49:30.441Z,21.17
2023-04-29T05:51:57.078Z,21.25
2023-04-29T05:54:23.714Z,22.40
2023-04-29T05:56:50.349Z,21.92
2023-04-29T05:59:16.925Z,23.00
2023-04-29T06:01:43.505Z,20.23
2023-04-29T06:04:10.454Z,20.63
2023-04-29T06:06:37.247Z,20.75
2023-04-29T06:09:08.414Z,22.17
2023-04-29T06:11:37.490Z,20.80
2023-04-29T06:14:04.085Z,22.42
2023-04-29T06:16:30.755Z,18.95
2023-04-29T06:18:57.404Z,17.95
2023-04-29T06:21:24.059Z,22.08
2023-04-29T06:23:50.677Z,19.70
2023-04-29T06:26:17.404Z,19.45
2023-04-29T06:28:44.072Z,21.00
2023-04-29T06:31:10.810Z,18.08
2023-04-29T06:33:37.429Z,20.30
2023-04-29T06:36:04.505Z,17.95
2023-04-29T06:38:31.328Z,19.58
2023-04-29T06:41:00.642Z,18.38
2023-04-29T06:43:28.030Z,20.02
2023-04-29T06:45:54.646Z,18.90
2023-04-29T06:48:21.371Z,19.98
2023-04-29T06:50:58.262Z,18.90
2023-04-29T06:53:25.224Z,17.75
2023-04-29T06:55:51.964Z,19.27
2023-04-29T06:58:19.149Z,16.65
2023-04-29T07:00:50.359Z,19.98
2023-04-29T07:03:18.828Z,18.92
2023-04-29T07:05:45.855Z,19.95
2023-04-29T07:08:13.456Z,20.38
2023-04-29T07:10:41.294Z,20.08
2023-04-29T07:13:07.973Z,16.80
2023-04-29T07:15:35.482Z,21.60
2023-04-29T07:18:05.247Z,17.35
2023-04-29T07:20:32.177Z,18.17
2023-04-29T07:22:59.306Z,19.60
2023-04-29T07:25:27.828Z,18.15
2023-04-29T07:27:54.504Z,21.42
2023-04-29T07:30:21.245Z,19.23
2023-04-29T07:32:47.891Z,17.58
2023-04-29T07:35:14.659Z,18.95
2023-04-29T07:37:43.816Z,21.67
2023-04-29T07:40:11.260Z,19.17
2023-04-29T07:42:37.887Z,18.45
2023-04-29T07:45:05.515Z,20.95
2023-04-29T07:47:32.107Z,17.63
2023-04-29T07:49:58.685Z,16.77
2023-04-29T07:52:25.314Z,20.38
2023-04-29T07:54:52.031Z,19.27
2023-04-29T07:57:18.813Z,19.13
2023-04-29T07:59:45.402Z,17.40
2023-04-29T08:02:12.009Z,20.95
2023-04-29T08:04:42.565Z,19.48
2023-04-29T08:07:09.419Z,18.35
2023-04-29T08:09:36.153Z,19.17
2023-04-29T08:12:02.798Z,21.08
2023-04-29T08:14:29.436Z,18.90
2023-04-29T08:16:56.252Z,18.38
2023-04-29T08:19:22.890Z,17.15
2023-04-29T08:21:49.491Z,21.40
2023-04-29T08:24:16.097Z,16.63
2023-04-29T08:26:42.942Z,21.45
2023-04-29T08:29:09.520Z,20.27
2023-04-29T08:31:36.244Z,18.58
2023-04-29T08:34:02.895Z,16.73
2023-04-29T08:36:29.755Z,17.75
2023-04-29T08:38:56.505Z,22.42
2023-04-29T08:41:23.448Z,19.52
2023-04-29T08:43:50.041Z,19.20
2023-04-29T08:46:18.012Z,17.67
2023-04-29T08:48:45.865Z,19.50
2023-04-29T08:51:13.812Z,18.30
2023-04-29T08:53:40.565Z,22.00
2023-04-29T08:56:16.919Z,18.83
2023-04-29T08:58:44.450Z,22.92
2023-04-29T09:01:11.445Z,23.40
2023-04-29T09:03:52.713Z,22.27
2023-04-29T09:06:19.803Z,8.93
2023-04-29T09:08:46.565Z,14.18
2023-04-29T09:11:14.499Z,21.50
2023-04-29T09:13:41.101Z,21.58
2023-04-29T09:16:12.108Z,11.60
2023-04-29T09:18:46.006Z,18.80
2023-04-29T09:21:20.279Z,22.80
2023-04-29T09:23:51.627Z,16.58
2023-04-29T09:26:18.404Z,14.50
2023-04-29T09:28:45.287Z,10.65
2023-04-29T09:31:12.648Z,8.77
2023-04-29T09:33:56.253Z,15.35
2023-04-29T09:36:47.953Z,19.42
2023-04-29T09:39:17.302Z,19.60
2023-04-29T09:41:52.849Z,26.67
2023-04-29T09:44:24.684Z,23.40
2023-04-29T09:47:02.676Z,14.45
2023-04-29T09:49:35.258Z,24.02
2023-04-29T09:52:04.480Z,9.75
2023-04-29T09:54:33.184Z,26.08
2023-04-29T09:57:02.120Z,18.27
2023-04-29T09:59:28.722Z,10.63
2023-04-29T10:01:57.179Z,14.90
2023-04-29T10:04:26.648Z,11.65
2023-04-29T10:06:54.985Z,24.65
2023-04-29T10:09:23.542Z,23.77
2023-04-29T10:11:54.068Z,27.58
2023-04-29T10:14:25.549Z,23.88
2023-04-29T10:17:10.804Z,23.77
2023-04-29T10:19:51.273Z,27.17
2023-04-29T10:22:27.551Z,4.78
2023-04-29T10:24:57.206Z,25.63
2023-04-29T10:27:25.381Z,9.95
2023-04-29T10:29:54.329Z,25.92
2023-04-29T10:32:22.937Z,13.15
2023-04-29T10:34:52.880Z,10.20
2023-04-29T10:37:20.031Z,23.00
2023-04-29T10:40:12.117Z,6.95
2023-04-29T10:42:43.581Z,22.42
2023-04-29T10:45:34.845Z,25.02
2023-04-29T10:48:08.698Z,23.67
2023-04-29T10:50:47.365Z,19.30
2023-04-29T10:53:21.872Z,27.63
2023-04-29T10:55:53.334Z,24.77
2023-04-29T10:58:39.190Z,21.85
2023-04-29T11:01:07.723Z,14.30
2023-04-29T11:03:58.713Z,19.05
2023-04-29T11:06:35.733Z,23.70
2023-04-29T11:09:38.511Z,14.30
2023-04-29T11:12:06.202Z,19.38
2023-04-29T11:14:37.341Z,20.70
2023-04-29T11:17:08.021Z,23.50
2023-04-29T11:19:36.691Z,24.48
2023-04-29T11:22:15.460Z,5.40
2023-04-29T11:25:07.406Z,19.30
2023-04-29T11:27:35.706Z,4.93
2023-04-29T11:30:05.167Z,9.50
2023-04-29T11:32:33.834Z,5.78
2023-04-29T11:35:14.871Z,16.52
2023-04-29T11:37:44.783Z,20.88
2023-04-29T11:40:13.173Z,7.03
2023-04-29T11:42:49.120Z,7.45
2023-04-29T11:45:18.239Z,20.30
2023-04-29T11:47:46.533Z,21.23
2023-04-29T11:50:16.675Z,19.08
2023-04-29T11:52:44.582Z,22.40
2023-04-29T11:55:11.956Z,25.85
2023-04-29T11:57:40.433Z,22.23
2023-04-29T12:00:14.221Z,20.88
2023-04-29T12:02:45.223Z,19.15
2023-04-29T12:05:13.693Z,10.13
2023-04-29T12:07:40.924Z,20.60
2023-04-29T12:10:12.022Z,20.83
2023-04-29T12:12:41.194Z,22.58
2023-04-29T12:15:09.978Z,24.73
2023-04-29T12:17:37.224Z,21.50
2023-04-29T12:20:04.200Z,20.08
2023-04-29T12:22:33.904Z,15.15
2023-04-29T12:25:03.131Z,19.30
2023-04-29T12:27:29.861Z,5.88
2023-04-29T12:29:57.611Z,13.05
2023-04-29T12:32:25.527Z,17.88
2023-04-29T12:34:53.109Z,13.82
2023-04-29T12:37:22.334Z,18.25
2023-04-29T12:39:50.120Z,19.50
2023-04-29T12:42:17.149Z,12.75
2023-04-29T12:44:47.513Z,17.63
2023-04-29T12:47:14.661Z,12.10
2023-04-29T12:49:46.300Z,17.95
2023-04-29T12:52:13.335Z,15.90
2023-04-29T12:54:43.956Z,11.20
2023-04-29T12:57:12.305Z,17.42
2023-04-29T12:59:40.957Z,15.43
2023-04-29T13:02:08.161Z,12.23
2023-04-29T13:04:34.861Z,9.10
2023-04-29T13:07:02.447Z,15.15
2023-04-29T13:09:30.317Z,16.50
2023-04-29T13:11:57.613Z,15.30
2023-04-29T13:14:24.222Z,15.88
2023-04-29T13:16:50.831Z,16.92
2023-04-29T13:19:28.277Z,16.23
2023-04-29T13:21:57.030Z,17.38
2023-04-29T13:24:23.777Z,16.05
2023-04-29T13:26:52.616Z,12.63
2023-04-29T13:29:19.573Z,12.68
2023-04-29T13:31:46.320Z,12.88
2023-04-29T13:34:13.098Z,14.73
2023-04-29T13:36:39.842Z,15.38
2023-04-29T13:39:06.448Z,17.75
2023-04-29T13:41:35.437Z,18.95
2023-04-29T13:44:02.762Z,14.73
2023-04-29T13:46:31.937Z,11.57
2023-04-29T13:49:15.986Z,7.65
2023-04-29T13:52:30.738Z,8.43
2023-04-29T13:59:45.557Z,13.60
2023-04-29T14:02:24.927Z,4.18
2023-04-29T14:04:53.234Z,12.80
2023-04-29T14:07:20.493Z,15.48
2023-04-29T14:09:47.134Z,15.57
2023-04-29T14:12:13.732Z,5.47
2023-04-29T14:14:40.379Z,7.45
2023-04-29T14:17:07.106Z,14.85
2023-04-29T14:19:33.678Z,4.97
2023-04-29T14:22:00.287Z,13.48
2023-04-29T14:24:26.854Z,5.82
2023-04-29T14:26:53.500Z,6.00
2023-04-29T14:29:20.188Z,12.57
2023-04-29T14:31:46.978Z,4.25
2023-04-29T14:34:13.704Z,10.05
2023-04-29T14:36:40.954Z,14.48
2023-04-29T14:39:07.710Z,16.10
2023-04-29T14:41:34.343Z,14.13
2023-04-29T14:44:00.936Z,14.23
2023-04-29T14:46:29.392Z,11.95
2023-04-29T14:48:56.211Z,16.70
2023-04-29T14:51:22.811Z,12.75
2023-04-29T14:53:49.383Z,12.20
2023-04-29T14:56:19.259Z,15.77
2023-04-29T14:58:45.905Z,11.98
2023-04-29T15:01:12.597Z,8.82
2023-04-29T15:06:08.924Z,13.23
2023-04-29T15:08:35.548Z,17.95
2023-04-29T15:11:02.170Z,16.52
2023-04-29T15:13:30.063Z,16.08
2023-04-29T15:15:57.576Z,14.70
2023-04-29T15:18:26.201Z,21.35
2023-04-29T15:20:53.610Z,8.15
2023-04-29T15:23:20.614Z,11.20
2023-04-29T15:25:47.366Z,7.57
2023-04-29T15:28:13.964Z,11.20
2023-04-29T15:30:40.776Z,11.38
2023-04-29T15:33:07.431Z,7.03
2023-04-29T15:35:34.830Z,10.15
2023-04-29T15:38:01.481Z,8.93
2023-04-29T15:40:28.145Z,9.52
2023-04-29T15:42:54.809Z,18.13
2023-04-29T15:45:21.494Z,13.77
2023-04-29T15:47:48.133Z,13.27
2023-04-29T15:50:14.892Z,12.60
2023-04-29T15:52:41.564Z,10.50
2023-04-29T15:55:08.342Z,14.30
2023-04-29T15:57:40.848Z,12.00
2023-04-29T16:00:08.646Z,6.00
2023-04-29T16:02:35.509Z,10.27
2023-04-29T16:05:02.241Z,12.45
2023-04-29T16:07:28.829Z,5.90
2023-04-29T16:09:55.656Z,8.18
2023-04-29T16:12:22.341Z,13.45
2023-04-29T16:14:48.959Z,14.23
2023-04-29T16:17:15.568Z,11.95
2023-04-29T16:19:42.233Z,12.43
2023-04-29T16:22:09.300Z,12.57
2023-04-29T16:24:35.894Z,12.75
2023-04-29T16:27:02.776Z,10.45
2023-04-29T16:29:29.382Z,9.18
2023-04-29T16:31:56.091Z,10.90
2023-04-29T16:34:23.211Z,8.57
2023-04-29T16:36:49.846Z,11.15
2023-04-29T16:39:16.513Z,8.48
2023-04-29T16:41:43.113Z,11.80
2023-04-29T16:44:09.730Z,12.77
2023-04-29T16:46:36.439Z,9.75
2023-04-29T16:49:03.261Z,8.90
2023-04-29T16:51:29.963Z,10.43
2023-04-29T16:53:56.573Z,10.30
2023-04-29T16:56:23.218Z,6.25
2023-04-29T16:58:49.860Z,5.82
2023-04-29T17:01:19.613Z,10.40
2023-04-29T17:03:47.796Z,10.38
2023-04-29T17:06:15.546Z,9.98
2023-04-29T17:08:42.893Z,10.32
2023-04-29T17:11:10.316Z,9.55
2023-04-29T17:13:36.989Z,9.15
2023-04-29T17:16:03.904Z,10.43
2023-04-29T17:18:30.694Z,10.38
2023-04-29T17:20:57.327Z,10.27
2023-04-29T17:23:23.929Z,15.20
2023-04-29T17:25:50.531Z,14.55
2023-04-29T17:28:17.227Z,10.77
2023-04-29T17:30:43.813Z,11.85
2023-04-29T17:33:12.418Z,10.07
2023-04-29T17:35:39.052Z,13.77
2023-04-29T17:38:05.639Z,10.45
2023-04-29T17:40:32.233Z,10.45
2023-04-29T17:42:58.872Z,12.35
2023-04-29T17:45:26.046Z,8.85
2023-04-29T17:47:52.931Z,8.15
2023-04-29T17:50:19.528Z,9.60
2023-04-29T17:52:46.433Z,10.50
2023-04-29T17:55:13.073Z,8.00
2023-04-29T17:57:40.691Z,10.88
2023-04-29T18:00:08.386Z,11.02
2023-04-29T18:02:35.130Z,11.35
2023-04-29T18:05:03.225Z,8.75
2023-04-29T18:07:29.917Z,8.60
2023-04-29T18:09:56.801Z,11.60
2023-04-29T18:12:24.440Z,10.65
2023-04-29T18:14:51.708Z,9.75
2023-04-29T18:17:18.525Z,10.18
2023-04-29T18:19:48.292Z,8.15
2023-04-29T18:22:15.539Z,10.35
2023-04-29T18:24:42.141Z,11.63
2023-04-29T18:27:08.835Z,11.70
2023-04-29T18:29:35.494Z,13.25
2023-04-29T18:32:02.198Z,15.27
2023-04-29T18:34:29.195Z,15.07
2023-04-29T18:36:55.754Z,12.75
2023-04-29T18:39:22.425Z,13.77
2023-04-29T18:41:49.032Z,11.75
2023-04-29T18:44:15.753Z,14.20
2023-04-29T18:46:42.422Z,13.20
2023-04-29T18:49:11.702Z,11.38
2023-04-29T18:51:38.790Z,12.20
2023-04-29T18:54:05.577Z,12.25
2023-04-29T18:56:32.233Z,12.50
2023-04-29T18:58:58.843Z,17.13
2023-04-29T19:01:25.776Z,18.52
2023-04-29T19:03:52.417Z,17.50
2023-04-29T19:06:19.100Z,21.52
2023-04-29T19:08:45.839Z,19.35
2023-04-29T19:11:12.445Z,16.10
2023-04-29T19:13:39.108Z,12.95
2023-04-29T19:16:05.928Z,15.20
2023-04-29T19:18:32.588Z,14.43
2023-04-29T19:20:59.944Z,13.02
2023-04-29T19:23:26.660Z,14.70
2023-04-29T19:25:53.336Z,11.25
2023-04-29T19:28:20.719Z,12.48
2023-04-29T19:30:47.496Z,11.23
2023-04-29T19:33:15.268Z,12.13
2023-04-29T19:35:41.922Z,13.07
2023-04-29T19:38:08.498Z,14.30
2023-04-29T19:40:35.159Z,11.48
2023-04-29T19:43:01.779Z,11.27
2023-04-29T19:45:28.638Z,11.75
2023-04-29T19:47:55.298Z,13.68
2023-04-29T19:50:22.704Z,14.63
2023-04-29T19:52:49.572Z,14.30
2023-04-29T19:55:16.916Z,13.85
2023-04-29T19:57:43.996Z,13.43
2023-04-29T20:00:13.406Z,13.60
2023-04-29T20:02:43.569Z,11.98
2023-04-29T20:05:10.651Z,13.43
2023-04-29T20:07:37.731Z,12.95
2023-04-29T20:10:05.460Z,11.40
2023-04-29T20:12:32.406Z,13.32
2023-04-29T20:14:59.501Z,12.50
2023-04-29T20:17:26.109Z,12.23
2023-04-29T20:19:52.980Z,14.35
2023-04-29T20:22:20.034Z,13.68
2023-04-29T20:24:46.660Z,14.93
2023-04-29T20:27:13.258Z,13.10
2023-04-29T20:29:39.933Z,12.20
2023-04-29T20:32:06.560Z,11.73
2023-04-29T20:34:33.254Z,13.05
2023-04-29T20:36:59.837Z,12.60
2023-04-29T20:39:26.733Z,12.30
2023-04-29T20:41:56.142Z,11.48
2023-04-29T20:44:23.080Z,11.65
2023-04-29T20:46:50.271Z,12.93
2023-04-29T20:49:16.863Z,12.63
2023-04-29T20:51:43.462Z,12.60
2023-04-29T20:54:10.958Z,10.98
2023-04-29T20:56:37.566Z,12.10
2023-04-29T20:59:04.208Z,13.32
2023-04-29T21:01:30.816Z,14.43
2023-04-29T21:03:57.536Z,10.13
2023-04-29T21:06:26.917Z,11.93
2023-04-29T21:08:53.528Z,14.07
2023-04-29T21:11:20.093Z,14.32
2023-04-29T21:13:50.059Z,15.82
2023-04-29T21:16:17.745Z,15.80
2023-04-29T21:18:44.762Z,14.32
2023-04-29T21:21:11.921Z,14.77
2023-04-29T21:23:39.104Z,12.30
2023-04-29T21:26:05.761Z,13.38
2023-04-29T21:28:32.525Z,11.45
2023-04-29T21:30:59.244Z,12.50
2023-04-29T21:33:25.934Z,10.02
2023-04-29T21:35:52.571Z,7.45
2023-04-29T21:38:19.236Z,10.05
2023-04-29T21:40:47.372Z,11.57
2023-04-29T21:43:15.566Z,8.80
2023-04-29T21:45:42.383Z,8.95
2023-04-29T21:48:16.971Z,9.85
2023-04-29T21:50:44.542Z,10.30
2023-04-29T21:53:15.250Z,5.32
2023-04-29T21:55:42.894Z,9.23
2023-04-29T21:58:10.783Z,9.30
2023-04-29T22:00:40.419Z,9.15
2023-04-29T22:03:10.930Z,9.25
2023-04-29T22:05:37.692Z,6.90
2023-04-29T22:08:07.099Z,9.77
2023-04-29T22:10:33.970Z,9.63
2023-04-29T22:13:00.592Z,10.30
2023-04-29T22:15:29.305Z,9.43
2023-04-29T22:17:57.225Z,9.70
2023-04-29T22:20:24.368Z,9.15
2023-04-29T22:22:51.953Z,10.98
2023-04-29T22:25:20.850Z,10.38
2023-04-29T22:27:48.261Z,9.82
2023-04-29T22:30:14.969Z,9.63
2023-04-29T22:32:41.637Z,10.13
2023-04-29T22:35:08.278Z,10.80
2023-04-29T22:37:34.895Z,11.73
2023-04-29T22:40:01.477Z,10.02
2023-04-29T22:42:28.045Z,12.00
2023-04-29T22:44:54.623Z,10.13
2023-04-29T22:47:21.209Z,7.75
2023-04-29T22:49:47.858Z,8.38
2023-04-29T22:52:14.486Z,9.80
2023-04-29T22:54:41.100Z,9.25
2023-04-29T22:57:07.786Z,9.52
2023-04-29T22:59:34.365Z,11.93
2023-04-29T23:02:01.075Z,9.38
2023-04-29T23:04:27.740Z,12.88
2023-04-29T23:06:54.390Z,10.48
2023-04-29T23:09:20.953Z,8.30
2023-04-29T23:11:47.513Z,8.00
2023-04-29T23:14:14.151Z,8.48
2023-04-29T23:16:40.729Z,8.85
2023-04-29T23:19:07.468Z,9.35
2023-04-29T23:21:34.092Z,10.48
2023-04-29T23:24:00.668Z,7.57
2023-04-29T23:26:27.314Z,9.68
2023-04-29T23:28:53.874Z,4.78
2023-04-29T23:31:20.523Z,11.30
2023-04-29T23:33:47.326Z,4.82
2023-04-29T23:36:13.940Z,7.15
2023-04-29T23:38:40.558Z,6.75
2023-04-29T23:41:07.239Z,9.93
2023-04-29T23:43:33.827Z,7.93
2023-04-29T23:46:00.980Z,4.85
2023-04-29T23:48:27.665Z,4.32
2023-04-29T23:50:54.215Z,5.13
2023-04-29T23:53:20.805Z,8.70
2023-04-29T23:55:49.338Z,10.13
2023-04-29T23:58:15.932Z,6.78
